Latest Coastal Weather Observations for Maroochydore

IDQ60701

Issued at 8:12 am EST Tuesday 28 March 2017 (issued every 10 minutes, with the page automatically refreshed every 10 minutes)

About coastal observations | Map of coastal stations | Coastal observations for QLD | Marine services | Other Formats
Station Details ID: 040861 Name: SUNSHINE COAST AIRPORT Lat: -26.60 Lon: 153.09 Height: 3.3 m
Data from the previous 72 hours. | See also: Recent months at Maroochydore
Date/Time
EST
Temp
°C
Wind Pressure Rain since
9am
mm
Weather Cloud Vis
km
Sea
Height
m
Swell
Dir  Spd
kts
Gust
kts
hPa Trend Height
m
Period
s
Dir
28/08:00am 25.6 SSW 4 7 1014.0 - 0.0 - Partly cloudy 10 - - - -
28/07:30am 23.7 SW 4 6 1013.8 - 0.0 - Partly cloudy 10 - - - -
28/07:00am 23.6 SSW 4 7 1013.3 - 0.0 - Partly cloudy 10 - - - -
28/06:30am 22.3 SW 6 7 1013.1 - 0.0 - Partly cloudy 10 - - - -
28/06:00am 21.8 SW 5 7 1012.7 - 0.0 - Cloudy 10 - - - -
28/05:30am 21.6 SW 5 6 1012.1 - 0.0 - Partly cloudy 10 - - - -
28/05:00am 21.6 SW 3 5 1011.9 - 0.0 - Partly cloudy 10 - - - -
28/04:30am 21.6 SW 1 4 1011.7 - 0.0 - Partly cloudy 10 - - - -
28/04:00am 21.6 SW 6 7 1011.4 - 0.0 - Partly cloudy 10 - - - -
28/03:30am 22.0 SSW 5 9 1011.4 - 0.0 - Partly cloudy 10 - - - -
28/03:00am 22.1 SW 5 7 1011.7 - 0.0 - Mostly cloudy 10 - - - -
28/02:30am 22.4 SW 4 7 1011.9 - 0.0 - Partly cloudy 10 - - - -
28/02:00am 22.5 SW 1 5 1012.1 - 0.0 - Partly cloudy 10 - - - -
28/01:30am 25.3 ESE 7 10 1012.5 - 0.0 - Partly cloudy 10 - - - -
28/01:00am 25.4 ESE 8 10 1013.0 - 0.0 - Partly cloudy 10 - - - -
28/12:30am 25.4 E 7 9 1013.4 - 0.0 - Cloudy 10 - - - -
28/12:00am 25.5 ESE 8 11 1013.8 - 0.0 - Mostly cloudy 10 - - - -
 
Date/Time
EST
Temp
°C
Wind Pressure Rain since
9am
mm
Weather Cloud Vis
km
Sea
Height
m
Swell
Dir  Spd
kts
Gust
kts
hPa Trend Height
m
Period
s
Dir
27/11:30pm 25.5 ESE 8 10 1014.0 - 0.0 - Partly cloudy 10 - - - -
27/11:00pm 25.5 ESE 8 11 1014.3 - 0.0 - Partly cloudy 10 - - - -
27/10:30pm 25.4 ESE 9 12 1014.4 - 0.0 - Partly cloudy 10 - - - -
27/10:00pm 25.3 ESE 8 11 1014.6 - 0.0 - Partly cloudy 10 - - - -
27/09:30pm 25.4 ESE 9 12 1014.7 - 0.0 - - 10 - - - -
27/09:00pm 25.4 ESE 10 13 1014.7 - 0.0 - Mostly clear 10 - - - -
27/08:30pm 25.5 ESE 9 11 1014.5 - 0.0 - Partly cloudy 10 - - - -
27/08:00pm 25.5 ESE 9 12 1014.3 - 0.0 - Partly cloudy 10 - - - -
27/07:30pm 25.5 ESE 9 11 1014.0 - 0.0 - Partly cloudy 10 - - - -
27/07:00pm 25.5 ESE 9 12 1013.8 - 0.0 - Partly cloudy 10 - - - -
27/06:30pm 25.4 ESE 8 10 1013.5 - 0.0 - Partly cloudy 10 - - - -
27/06:00pm 25.6 ESE 10 12 1013.4 - 0.0 - Partly cloudy 10 - - - -
27/05:30pm 25.8 ESE 9 13 1013.1 - 0.0 - Partly cloudy 10 - - - -
27/05:00pm 26.0 ESE 10 13 1012.8 - 0.0 - Partly cloudy 10 - - - -
27/04:30pm 26.2 ESE 11 14 1012.7 - 0.0 - Partly cloudy 10 - - - -
27/04:00pm 26.7 ESE 11 14 1012.7 - 0.0 - Partly cloudy 10 - - - -
27/03:30pm 26.5 ESE 12 15 1012.6 - 0.0 - Partly cloudy 10 - - - -
27/03:00pm 27.6 ESE 12 16 1012.7 - 0.0 - Partly cloudy 10 - - - -
27/02:30pm 27.8 ESE 13 16 1012.8 - 0.0 - Partly cloudy 10 - - - -
27/02:00pm 27.7 ESE 13 17 1012.9 - 0.0 - - 10 - - - -
27/01:30pm 28.0 ESE 12 16 1013.2 - 0.0 - Partly cloudy 10 - - - -
27/01:00pm 28.4 ESE 12 16 1013.5 - 0.0 - Partly cloudy 10 - - - -
27/12:30pm 28.4 ESE 13 16 1013.9 - 0.0 - - 10 - - - -
27/12:00pm 28.3 ESE 12 15 1014.5 - 0.0 - Mostly clear 10 - - - -
27/11:30am 28.1 ESE 12 16 1014.8 - 0.0 - Partly cloudy 10 - - - -
27/11:00am 28.6 SE 11 15 1015.0 - 0.0 - Partly cloudy 10 - - - -
27/10:30am 28.0 ESE 12 15 1015.1 - 0.0 - Partly cloudy 10 - - - -
27/10:00am 28.1 SE 12 16 1015.3 - 0.0 - Partly cloudy 10 - - - -
27/09:30am 27.6 SE 11 14 1015.4 - 0.0 - Partly cloudy 10 - - - -
27/09:00am 27.0 SE 11 14 1015.4 - 0.0 - Cloudy 10 - - - -
27/08:30am 27.0 SE 11 14 1015.3 - 0.0 - Partly cloudy 10 - - - -
27/08:00am 27.2 SE 9 12 1015.1 - 0.0 - Partly cloudy 10 - - - -
27/07:30am 25.0 S 6 7 1014.7 - 0.0 - Partly cloudy 10 - - - -
27/07:00am 24.3 S 5 8 1014.3 - 0.0 - Partly cloudy 10 - - - -
27/06:30am 23.0 S 5 7 1014.0 - 0.0 - Partly cloudy 10 - - - -
27/06:00am 21.8 SSW 4 5 1013.8 - 0.0 - - 10 - - - -
27/05:30am 21.8 SW 5 5 1013.4 - 0.0 - - 10 - - - -
27/05:00am 22.7 S 6 7 1013.2 - 0.0 - Partly cloudy 10 - - - -
27/04:30am 22.9 S 5 7 1013.2 - 0.0 - Partly cloudy 10 - - - -
27/04:00am 22.5 SSW 3 5 1013.3 - 0.0 - Partly cloudy 10 - - - -
27/03:30am 22.5 SSW 3 4 1013.4 - 0.0 - Partly cloudy 10 - - - -
27/03:00am 22.4 SW 4 5 1013.6 - 0.0 - Cloudy 10 - - - -
27/02:30am 22.3 SW 4 5 1013.7 - 0.0 - Partly cloudy 10 - - - -
27/02:00am 22.0 SW 4 4 1013.9 - 0.0 - Partly cloudy 10 - - - -
27/01:30am 21.9 WSW 3 4 1013.9 - 0.0 - Partly cloudy 10 - - - -
27/01:00am 21.6 SW 4 5 1014.2 - 0.0 - Partly cloudy 10 - - - -
27/12:30am 21.2 WSW 4 5 1014.5 - 0.0 - Partly cloudy 10 - - - -
27/12:00am 21.4 CALM 0 0 1014.6 - 0.0 - - 10 - - - -
 
Date/Time
EST
Temp
°C
Wind Pressure Rain since
9am
mm
Weather Cloud Vis
km
Sea
Height
m
Swell
Dir  Spd
kts
Gust
kts
hPa Trend Height
m
Period
s
Dir
26/11:30pm 21.3 WSW 4 5 1014.8 - 0.0 - - 10 - - - -
26/11:00pm 21.6 WSW 5 6 1015.1 - 0.0 - Partly cloudy 10 - - - -
26/10:30pm 21.9 WSW 5 6 1015.2 - 0.0 - - 10 - - - -
26/10:00pm 22.1 WSW 5 6 1015.1 - 0.0 - - 10 - - - -
26/09:30pm 24.9 ENE 5 7 1015.2 - 0.0 - - 10 - - - -
26/09:00pm 25.2 E 6 8 1015.2 - 0.0 - - 10 - - - -
26/08:30pm 25.1 E 6 8 1014.9 - 0.0 - - 10 - - - -
26/08:00pm 25.1 ENE 7 8 1014.6 - 0.0 - - 10 - - - -
26/07:30pm 25.0 ENE 6 7 1014.2 - 0.0 - - 10 - - - -
26/07:00pm 24.7 ENE 6 7 1013.7 - 0.0 - - 10 - - - -
26/06:30pm 24.3 ENE 5 7 1013.2 - 0.0 - - 10 - - - -
26/06:00pm 24.6 NE 5 6 1012.9 - 0.0 - - 10 - - - -
26/05:30pm 25.6 ENE 6 8 1012.7 - 0.0 - - 10 - - - -
26/05:00pm 26.3 ENE 7 9 1012.5 - 0.0 - - 10 - - - -
26/04:30pm 26.7 ENE 8 10 1012.2 - 0.0 - - 10 - - - -
26/04:00pm 27.1 ENE 8 10 1012.4 - 0.0 - - 10 - - - -
26/03:30pm 27.0 E 8 11 1012.5 - 0.0 - - 10 - - - -
26/03:00pm 27.2 E 8 10 1012.5 - 0.0 - - 10 - - - -
26/02:30pm 27.6 ENE 8 10 1012.2 - 0.0 - - 10 - - - -
26/02:00pm 28.0 ENE 8 11 1012.5 - 0.0 - - 10 - - - -
26/01:30pm 27.9 E 9 13 1012.8 - 0.0 - - 10 - - - -
26/01:00pm 27.6 ESE 9 12 1013.3 - 0.0 - - 10 - - - -
26/12:30pm 27.8 ESE 9 12 1013.8 - 0.0 - - 10 - - - -
26/12:00pm 28.1 SE 8 11 1014.1 - 0.0 - - 10 - - - -
26/11:30am 27.8 ESE 7 11 1014.5 - 0.0 - - 10 - - - -
26/11:00am 27.5 ESE 9 12 1014.9 - 0.0 - - 10 - - - -
26/10:30am 28.1 ESE 7 10 1015.3 - 0.0 - - 10 - - - -
26/10:00am 27.6 SE 8 11 1015.5 - 0.0 - - 10 - - - -
26/09:30am 27.3 SE 8 10 1015.5 - 0.0 - - 10 - - - -
26/09:00am 27.4 SE 7 10 1015.4 - 0.2 - - 10 - - - -
26/08:30am 26.6 SSE 7 10 1015.4 - 0.2 - - 10 - - - -
26/08:00am 25.6 S 6 8 1015.3 - 0.2 - - 10 - - - -
26/07:30am 24.0 SSW 4 7 1014.8 - 0.2 - - 10 - - - -
26/07:00am 21.7 CALM 0 0 1014.7 - 0.2 - Partly cloudy 10 - - - -
26/06:30am 20.4 SW 4 5 1014.3 - 0.2 - - 10 - - - -
26/06:00am 19.9 SW 3 5 1014.1 - 0.2 - - 10 - - - -
26/05:30am 20.1 W 3 4 1013.9 - 0.2 - Partly cloudy 10 - - - -
26/05:00am 20.3 WSW 3 4 1013.7 - 0.2 - Partly cloudy 10 - - - -
26/04:30am 20.7 SW 4 5 1013.2 - 0.2 - Partly cloudy 10 - - - -
26/04:00am 20.9 SW 4 5 1013.0 - 0.2 - Partly cloudy 10 - - - -
26/03:30am 21.0 SW 5 7 1013.2 - 0.2 - Partly cloudy 10 - - - -
26/03:00am 20.8 WSW 3 4 1013.3 - 0.2 - Mostly clear 10 - - - -
26/02:30am 20.9 WSW 4 5 1013.3 - 0.2 - Partly cloudy 10 - - - -
26/02:00am 21.4 SW 5 8 1013.4 - 0.2 - - 10 - - - -
26/01:30am 22.5 S 5 7 1013.9 - 0.2 - Partly cloudy 10 - - - -
26/01:00am 24.5 ESE 7 11 1014.3 - 0.2 - Partly cloudy 10 - - - -
26/12:30am 24.6 ESE 7 10 1014.5 - 0.2 - Partly cloudy 10 - - - -
26/12:00am 25.0 ESE 9 13 1014.8 - 0.2 - Cloudy 10 - - - -
 
Date/Time
EST
Temp
°C
Wind Pressure Rain since
9am
mm
Weather Cloud Vis
km
Sea
Height
m
Swell
Dir  Spd
kts
Gust
kts
hPa Trend Height
m
Period
s
Dir
25/11:30pm 24.9 ESE 8 11 1015.2 - 0.2 - Partly cloudy 10 - - - -
25/11:00pm 24.6 SE 8 11 1015.6 - 0.2 - Partly cloudy 10 - - - -
25/10:30pm 24.4 SE 9 13 1015.9 - 0.2 - Partly cloudy 10 - - - -
25/10:00pm 24.6 SE 9 11 1015.8 - 0.2 - Partly cloudy 10 - - - -
25/09:30pm 24.7 SE 9 13 1015.8 - 0.2 - Partly cloudy 10 - - - -
25/09:00pm 24.6 SE 10 13 1015.9 - 0.2 - - 10 - - - -
25/08:30pm 24.7 ESE 11 14 1015.9 - 0.2 - Partly cloudy 10 - - - -
25/08:00pm 24.7 ESE 10 14 1015.7 - 0.2 - Partly cloudy 10 - - - -
25/07:30pm 24.8 ESE 11 16 1015.4 - 0.2 - Partly cloudy 10 - - - -
25/07:00pm 24.9 SE 10 13 1015.1 - 0.2 - Partly cloudy 10 - - - -
25/06:30pm 24.9 ESE 11 15 1014.8 - 0.2 - Partly cloudy 10 - - - -
25/06:00pm 24.8 SE 10 15 1014.6 - 0.2 - Partly cloudy 10 - - - -
25/05:30pm 25.1 SE 10 14 1014.4 - 0.2 - Partly cloudy 10 - - - -
25/05:00pm 25.6 SE 11 15 1013.9 - 0.2 - - 10 - - - -
25/04:30pm 26.1 SE 11 16 1013.7 - 0.2 - - 10 - - - -
25/04:00pm 26.6 SE 12 15 1013.6 - 0.2 - - 10 - - - -
25/03:30pm 27.0 SE 13 16 1013.6 - 0.2 - Partly cloudy 10 - - - -
25/03:00pm 27.6 SE 14 18 1013.7 - 0.2 - Partly cloudy 10 - - - -
25/02:30pm 27.8 SE 13 16 1013.6 - 0.2 - Partly cloudy 10 - - - -
25/02:00pm 26.6 SSE 13 17 1013.8 - 0.2 - Partly cloudy 10 - - - -
25/01:30pm 26.3 SE 13 18 1014.0 - 0.2 - Partly cloudy 10 - - - -
25/01:00pm 25.7 SSE 14 19 1014.1 - 0.2 - Partly cloudy 10 - - - -
25/12:30pm 26.1 SE 14 19 1014.5 - 0.2 - Partly cloudy 10 - - - -
25/12:00pm 26.1 SE 14 18 1015.0 - 0.2 - Cloudy 10 - - - -
25/11:30am 26.4 SE 13 17 1015.4 - 0.2 - Partly cloudy 10 - - - -
25/11:00am 25.5 SE 15 21 1015.8 - 0.2 - Partly cloudy 10 - - - -
25/10:30am 25.9 SE 15 21 1016.2 - 0.2 - Partly cloudy 10 - - - -
25/10:00am 25.0 SSE 13 17 1016.2 - 0.2 - Partly cloudy 10 - - - -
25/09:44am 24.6 SSE 10 19 1016.1 - 0.2 - Partly cloudy 10 - - - -
25/09:30am 23.2 S 7 9 1016.2 - 0.2 - Partly cloudy 10 - - - -
25/09:04am 23.2 S 7 11 1016.1 - 0.0 - Partly cloudy 10 - - - -
25/09:00am 23.5 SSE 9 14 1016.1 - 8.2 - Cloudy 10 - - - -
25/08:54am 23.5 SSE 12 17 1016.1 - 8.2 - Partly cloudy 10 - - - -
25/08:30am 23.0 SSE 14 19 1016.1 - 7.8 - Partly cloudy 4 - - - -
25/08:16am 23.5 SE 14 19 1015.8 - 7.4 - Partly cloudy 4 - - - -

Other Formats:

Comma delimited format used in spreadsheet applications
http://www.bom.gov.au/fwo/IDQ60701/IDQ60701.94569.axf

JavaScript Object Notation format (JSON) in row-major order
http://www.bom.gov.au/fwo/IDQ60701/IDQ60701.94569.json